createdAt,value
2023-04-16T00:01:38.604Z,4.75
2023-04-16T00:05:01.827Z,7.10
2023-04-16T00:08:24.831Z,4.07
2023-04-16T00:11:46.639Z,5.28
2023-04-16T00:15:09.359Z,3.20
2023-04-16T00:18:32.255Z,3.90
2023-04-16T00:21:55.400Z,3.28
2023-04-16T00:25:17.211Z,5.72
2023-04-16T00:28:39.210Z,2.97
2023-04-16T00:32:01.018Z,3.33
2023-04-16T00:35:23.158Z,3.55
2023-04-16T00:38:46.338Z,3.95
2023-04-16T00:42:08.586Z,3.55
2023-04-16T00:45:30.673Z,22.40
2023-04-16T00:48:54.087Z,4.20
2023-04-16T00:52:16.585Z,7.63
2023-04-16T00:55:41.101Z,10.25
2023-04-16T00:59:03.211Z,3.45
2023-04-16T01:02:28.109Z,4.70
2023-04-16T01:05:50.779Z,3.20
2023-04-16T01:09:12.921Z,4.57
2023-04-16T01:12:36.661Z,5.88
2023-04-16T01:15:58.562Z,5.68
2023-04-16T01:19:20.539Z,6.47
2023-04-16T01:22:44.432Z,5.13
2023-04-16T01:26:06.625Z,3.80
2023-04-16T01:29:28.817Z,2.83
2023-04-16T01:32:50.833Z,4.97
2023-04-16T01:36:12.694Z,3.60
2023-04-16T01:39:35.930Z,6.15
2023-04-16T01:42:58.047Z,5.55
2023-04-16T01:46:25.149Z,6.95
2023-04-16T01:49:48.398Z,3.45
2023-04-16T01:53:10.312Z,3.20
2023-04-16T01:56:33.595Z,5.60
2023-04-16T01:59:55.701Z,6.85
2023-04-16T02:03:19.117Z,3.65
2023-04-16T02:06:40.988Z,3.67
2023-04-16T02:10:02.758Z,5.05
2023-04-16T02:13:26.322Z,6.45
2023-04-16T02:16:48.372Z,3.33
2023-04-16T02:20:11.522Z,4.75
2023-04-16T02:23:33.044Z,5.35
2023-04-16T02:26:54.844Z,4.35
2023-04-16T02:30:18.298Z,5.22
2023-04-16T02:33:40.217Z,4.93
2023-04-16T02:37:02.101Z,3.95
2023-04-16T02:40:23.920Z,3.13
2023-04-16T02:43:46.064Z,5.15
2023-04-16T02:47:09.325Z,9.10
2023-04-16T02:50:31.530Z,6.13
2023-04-16T02:53:53.734Z,4.72
2023-04-16T02:57:15.825Z,6.43
2023-04-16T03:00:37.604Z,4.50
2023-04-16T03:04:02.160Z,2.85
2023-04-16T03:07:24.290Z,5.72
2023-04-16T03:10:46.217Z,3.83
2023-04-16T03:14:08.135Z,4.60
2023-04-16T03:17:29.942Z,6.72
2023-04-16T03:20:54.569Z,3.38
2023-04-16T03:24:16.444Z,5.40
2023-04-16T03:27:39.781Z,4.60
2023-04-16T03:31:02.352Z,4.43
2023-04-16T03:34:24.100Z,3.53
2023-04-16T03:37:47.250Z,4.88
2023-04-16T03:41:09.363Z,2.85
2023-04-16T03:44:31.827Z,4.32
2023-04-16T03:47:54.014Z,4.20
2023-04-16T03:51:16.138Z,3.75
2023-04-16T03:54:39.590Z,4.50
2023-04-16T03:58:03.290Z,4.72
2023-04-16T04:01:25.496Z,6.03
2023-04-16T04:04:47.796Z,7.95
2023-04-16T04:08:10.196Z,5.78
2023-04-16T04:11:39.020Z,9.13
2023-04-16T04:15:00.829Z,9.95
2023-04-16T04:18:22.621Z,6.05
2023-04-16T04:21:44.743Z,11.43
2023-04-16T04:25:08.711Z,6.65
2023-04-16T04:28:32.197Z,4.20
2023-04-16T04:31:55.395Z,11.48
2023-04-16T04:35:17.258Z,6.30
2023-04-16T04:38:38.924Z,5.68
2023-04-16T04:42:03.427Z,8.70
2023-04-16T04:45:27.026Z,7.65
2023-04-16T04:48:49.223Z,10.75
2023-04-16T04:52:11.700Z,6.05
2023-04-16T04:55:33.697Z,6.00
2023-04-16T04:58:56.694Z,8.68
2023-04-16T05:02:20.783Z,8.43
2023-04-16T05:05:42.788Z,4.65
2023-04-16T05:09:04.842Z,6.18
2023-04-16T05:12:27.066Z,13.20
2023-04-16T05:15:51.493Z,12.80
2023-04-16T05:19:14.801Z,9.27
2023-04-16T05:22:36.742Z,7.45
2023-04-16T05:25:58.560Z,13.35
2023-04-16T05:29:20.493Z,7.90
2023-04-16T05:32:42.935Z,6.53
2023-04-16T05:36:06.697Z,4.15
2023-04-16T05:39:29.033Z,8.15
2023-04-16T05:42:50.889Z,5.70
2023-04-16T05:46:12.579Z,5.13
2023-04-16T05:49:34.576Z,7.38
2023-04-16T05:52:57.721Z,4.30
2023-04-16T05:56:19.937Z,6.78
2023-04-16T05:59:41.634Z,5.43
2023-04-16T06:03:04.346Z,9.10
2023-04-16T06:06:27.498Z,5.85
2023-04-16T06:09:50.984Z,3.95
2023-04-16T06:13:13.108Z,8.25
2023-04-16T06:16:36.641Z,8.95
2023-04-16T06:19:58.477Z,5.32
2023-04-16T06:23:23.397Z,7.65
2023-04-16T06:26:46.748Z,6.90
2023-04-16T06:30:13.783Z,6.53
2023-04-16T06:33:35.658Z,5.57
2023-04-16T06:36:57.318Z,6.90
2023-04-16T06:40:19.367Z,6.50
2023-04-16T06:43:42.662Z,10.18
2023-04-16T06:47:05.292Z,10.10
2023-04-16T06:50:28.630Z,5.07
2023-04-16T06:53:50.473Z,3.47
2023-04-16T06:57:12.455Z,5.30
2023-04-16T07:00:36.260Z,5.38
2023-04-16T07:03:58.826Z,8.60
2023-04-16T07:07:20.949Z,4.70
2023-04-16T07:10:42.739Z,7.25
2023-04-16T07:14:04.952Z,5.57
2023-04-16T07:17:28.384Z,9.20
2023-04-16T07:20:53.149Z,7.82
2023-04-16T07:24:17.346Z,6.68
2023-04-16T07:27:39.167Z,6.40
2023-04-16T07:31:01.424Z,6.85
2023-04-16T07:34:25.017Z,6.30
2023-04-16T07:37:46.761Z,8.50
2023-04-16T07:41:09.582Z,6.68
2023-04-16T07:44:32.054Z,7.68
2023-04-16T07:47:54.325Z,7.55
2023-04-16T07:51:17.848Z,6.00
2023-04-16T07:54:40.012Z,7.35
2023-04-16T07:58:02.799Z,8.98
2023-04-16T08:01:24.790Z,10.98
2023-04-16T08:04:47.047Z,7.93
2023-04-16T08:08:10.953Z,8.38
2023-04-16T08:11:33.406Z,6.57
2023-04-16T08:14:55.528Z,6.22
2023-04-16T08:18:17.252Z,10.68
2023-04-16T08:21:39.052Z,6.55
2023-04-16T08:25:02.118Z,7.70
2023-04-16T08:28:24.290Z,25.50
2023-04-16T08:31:46.662Z,7.00
2023-04-16T08:35:08.874Z,9.88
2023-04-16T08:38:31.571Z,8.93
2023-04-16T08:41:56.414Z,9.10
2023-04-16T08:45:19.408Z,9.93
2023-04-16T08:48:44.060Z,12.38
2023-04-16T08:52:09.435Z,7.68
2023-04-16T08:55:37.189Z,9.20
2023-04-16T08:59:03.223Z,11.40
2023-04-16T09:02:27.841Z,7.28
2023-04-16T09:05:51.724Z,10.90
2023-04-16T09:09:14.308Z,9.38
2023-04-16T09:12:37.208Z,8.02
2023-04-16T09:16:01.684Z,7.43
2023-04-16T09:19:24.438Z,4.88
2023-04-16T09:22:46.925Z,9.27
2023-04-16T09:26:08.863Z,8.95
2023-04-16T09:29:37.862Z,12.63
2023-04-16T09:36:38.869Z,8.13
2023-04-16T09:40:02.229Z,11.57
2023-04-16T09:43:24.262Z,10.70
2023-04-16T09:46:46.451Z,10.98
2023-04-16T09:50:12.658Z,13.73
2023-04-16T09:53:34.995Z,12.18
2023-04-16T09:56:58.404Z,10.80
2023-04-16T10:00:20.906Z,11.32
2023-04-16T10:03:42.864Z,10.23
2023-04-16T10:07:06.916Z,8.85
2023-04-16T10:10:28.550Z,11.88
2023-04-16T10:13:51.647Z,10.57
2023-04-16T10:17:13.866Z,11.23
2023-04-16T10:20:35.866Z,15.65
2023-04-16T10:23:59.334Z,13.82
2023-04-16T10:27:22.534Z,13.45
2023-04-16T10:30:52.653Z,9.30
2023-04-16T10:34:15.619Z,12.40
2023-04-16T10:37:39.108Z,16.05
2023-04-16T10:41:05.098Z,13.25
2023-04-16T10:44:27.143Z,10.35
2023-04-16T10:47:49.010Z,12.70
2023-04-16T10:51:26.122Z,17.83
2023-04-16T10:54:49.186Z,10.23
2023-04-16T10:58:30.559Z,16.38
2023-04-16T11:01:54.217Z,16.02
2023-04-16T11:05:16.099Z,20.10
2023-04-16T11:08:53.406Z,13.45
2023-04-16T11:12:18.662Z,12.13
2023-04-16T11:15:42.492Z,12.80
2023-04-16T11:19:04.563Z,15.85
2023-04-16T11:22:27.260Z,12.52
2023-04-16T11:25:51.849Z,12.73
2023-04-16T11:29:16.370Z,11.38
2023-04-16T11:32:40.754Z,10.32
2023-04-16T11:36:02.608Z,12.98
2023-04-16T11:39:24.795Z,13.52
2023-04-16T11:42:46.680Z,11.32
2023-04-16T11:46:24.110Z,11.77
2023-04-16T11:49:50.690Z,12.32
2023-04-16T11:53:12.912Z,13.13
2023-04-16T11:56:37.692Z,13.15
2023-04-16T12:00:02.121Z,11.68
2023-04-16T12:03:39.793Z,13.73
2023-04-16T12:07:10.706Z,9.50
2023-04-16T12:10:36.222Z,12.95
2023-04-16T12:14:16.543Z,18.55
2023-04-16T12:17:39.803Z,11.95
2023-04-16T12:21:08.003Z,9.80
2023-04-16T12:24:33.856Z,12.88
2023-04-16T12:27:58.216Z,10.68
2023-04-16T12:31:37.881Z,15.60
2023-04-16T12:34:59.811Z,9.77
2023-04-16T12:38:24.557Z,9.48
2023-04-16T12:41:47.973Z,11.82
2023-04-16T12:45:09.793Z,12.90
2023-04-16T12:48:32.487Z,16.00
2023-04-16T12:51:54.491Z,12.80
2023-04-16T12:55:16.343Z,10.43
2023-04-16T12:58:39.403Z,12.63
2023-04-16T13:02:03.029Z,11.05
2023-04-16T13:05:24.803Z,10.68
2023-04-16T13:08:46.994Z,13.23
2023-04-16T13:12:09.436Z,15.20
2023-04-16T13:15:32.994Z,12.52
2023-04-16T13:18:55.014Z,13.70
2023-04-16T13:22:16.958Z,13.60
2023-04-16T13:25:39.969Z,9.93
2023-04-16T13:29:01.748Z,17.27
2023-04-16T13:32:25.407Z,14.20
2023-04-16T13:35:47.514Z,10.93
2023-04-16T13:39:11.802Z,15.18
2023-04-16T13:42:33.712Z,15.88
2023-04-16T13:45:55.455Z,14.93
2023-04-16T13:49:18.851Z,16.65
2023-04-16T13:52:41.298Z,14.40
2023-04-16T13:56:04.299Z,14.32
2023-04-16T13:59:26.706Z,15.93
2023-04-16T14:02:49.783Z,18.40
2023-04-16T14:06:13.909Z,12.70
2023-04-16T14:09:35.835Z,14.75
2023-04-16T14:12:58.760Z,12.10
2023-04-16T14:16:20.649Z,12.88
2023-04-16T14:19:42.583Z,13.15
2023-04-16T14:23:05.845Z,11.38
2023-04-16T14:26:27.629Z,12.13
2023-04-16T14:29:49.736Z,15.45
2023-04-16T14:33:11.608Z,18.50
2023-04-16T14:36:33.599Z,11.00
2023-04-16T14:39:56.772Z,13.95
2023-04-16T14:43:18.872Z,12.55
2023-04-16T14:46:41.128Z,14.48
2023-04-16T14:50:03.614Z,10.73
2023-04-16T14:53:25.605Z,11.15
2023-04-16T14:56:48.879Z,13.77
2023-04-16T15:00:13.563Z,10.50
2023-04-16T15:03:36.469Z,10.85
2023-04-16T15:06:59.347Z,19.88
2023-04-16T15:10:21.451Z,11.80
2023-04-16T15:13:44.595Z,17.38
2023-04-16T15:17:06.881Z,17.75
2023-04-16T15:20:28.666Z,14.88
2023-04-16T15:23:50.620Z,15.05
2023-04-16T15:27:14.104Z,17.00
2023-04-16T15:30:39.021Z,11.98
2023-04-16T15:34:01.598Z,14.35
2023-04-16T15:37:23.673Z,15.77
2023-04-16T15:40:45.566Z,19.02
2023-04-16T15:44:07.648Z,11.93
2023-04-16T15:47:31.170Z,9.65
2023-04-16T15:50:53.492Z,12.90
2023-04-16T15:54:15.728Z,11.95
2023-04-16T15:57:37.618Z,11.50
2023-04-16T16:00:59.520Z,10.23
2023-04-16T16:04:23.441Z,17.27
2023-04-16T16:07:45.712Z,14.50
2023-04-16T16:11:08.021Z,10.63
2023-04-16T16:14:30.004Z,12.35
2023-04-16T16:17:53.558Z,11.32
2023-04-16T16:21:17.032Z,8.80
2023-04-16T16:24:38.781Z,7.53
2023-04-16T16:28:01.890Z,10.48
2023-04-16T16:31:24.675Z,9.02
2023-04-16T16:34:46.473Z,8.40
2023-04-16T16:38:09.788Z,7.57
2023-04-16T16:41:32.466Z,7.55
2023-04-16T16:44:56.017Z,6.05
2023-04-16T16:48:19.386Z,6.25
2023-04-16T16:51:41.459Z,7.35
2023-04-16T16:55:05.755Z,9.95
2023-04-16T16:58:27.741Z,8.98
2023-04-16T17:01:50.072Z,8.20
2023-04-16T17:05:12.711Z,7.70
2023-04-16T17:08:34.576Z,11.10
2023-04-16T17:11:58.159Z,11.63
2023-04-16T17:15:21.896Z,13.70
2023-04-16T17:18:43.901Z,16.30
2023-04-16T17:22:06.103Z,12.80
2023-04-16T17:25:28.582Z,11.82
2023-04-16T17:28:53.324Z,10.73
2023-04-16T17:32:15.313Z,17.48
2023-04-16T17:35:37.242Z,11.70
2023-04-16T17:38:59.467Z,13.45
2023-04-16T17:42:21.893Z,11.77
2023-04-16T17:45:45.477Z,13.48
2023-04-16T17:49:07.472Z,15.40
2023-04-16T17:52:29.686Z,12.73
2023-04-16T17:55:54.570Z,15.23
2023-04-16T17:59:18.073Z,12.23
2023-04-16T18:02:42.089Z,16.33
2023-04-16T18:06:04.222Z,10.98
2023-04-16T18:09:26.386Z,11.40
2023-04-16T18:12:48.735Z,10.23
2023-04-16T18:16:16.711Z,10.68
2023-04-16T18:19:43.725Z,7.65
2023-04-16T18:23:05.888Z,12.65
2023-04-16T18:26:29.863Z,13.50
2023-04-16T18:29:54.578Z,13.63
2023-04-16T18:36:42.990Z,14.45
2023-04-16T18:40:10.728Z,9.93
2023-04-16T18:43:32.874Z,10.10
2023-04-16T18:46:54.913Z,11.25
2023-04-16T18:50:16.888Z,9.82
2023-04-16T18:53:42.454Z,9.45
2023-04-16T18:57:04.508Z,10.35
2023-04-16T19:00:26.840Z,14.90
2023-04-16T19:03:48.787Z,12.52
2023-04-16T19:07:10.735Z,13.48
2023-04-16T19:10:34.089Z,10.30
2023-04-16T19:13:57.501Z,9.70
2023-04-16T19:17:19.466Z,10.25
2023-04-16T19:20:41.445Z,15.80
2023-04-16T19:24:03.286Z,12.68
2023-04-16T19:27:26.580Z,10.70
2023-04-16T19:30:51.571Z,7.90
2023-04-16T19:34:15.474Z,10.82
2023-04-16T19:37:37.153Z,11.80
2023-04-16T19:40:59.230Z,10.02
2023-04-16T19:44:23.402Z,9.88
2023-04-16T19:47:45.332Z,11.45
2023-04-16T19:51:07.036Z,11.45
2023-04-16T19:54:33.719Z,10.02
2023-04-16T19:57:55.616Z,8.98
2023-04-16T20:01:18.828Z,14.25
2023-04-16T20:04:40.866Z,9.90
2023-04-16T20:08:02.913Z,8.60
2023-04-16T20:11:24.721Z,9.65
2023-04-16T20:14:47.410Z,9.27
2023-04-16T20:18:12.891Z,9.25
2023-04-16T20:21:35.018Z,8.98
2023-04-16T20:24:56.933Z,12.48
2023-04-16T20:28:21.611Z,11.88
2023-04-16T20:31:44.510Z,13.82
2023-04-16T20:35:11.378Z,11.80
2023-04-16T20:38:34.416Z,9.80
2023-04-16T20:41:57.732Z,10.50
2023-04-16T20:45:19.560Z,10.40
2023-04-16T20:48:41.397Z,7.85
2023-04-16T20:52:05.104Z,11.93
2023-04-16T20:55:27.020Z,10.07
2023-04-16T20:58:48.837Z,14.07
2023-04-16T21:02:10.770Z,11.45
2023-04-16T21:05:34.072Z,9.32
2023-04-16T21:08:57.501Z,8.88
2023-04-16T21:12:19.604Z,12.52
2023-04-16T21:15:42.827Z,13.95
2023-04-16T21:19:04.802Z,10.75
2023-04-16T21:22:27.001Z,12.25
2023-04-16T21:25:50.570Z,10.93
2023-04-16T21:29:13.020Z,9.75
2023-04-16T21:32:35.097Z,8.65
2023-04-16T21:35:57.042Z,8.45
2023-04-16T21:39:21.646Z,9.38
2023-04-16T21:42:44.920Z,7.97
2023-04-16T21:46:07.146Z,8.60
2023-04-16T21:49:29.193Z,9.18
2023-04-16T21:52:52.620Z,10.57
2023-04-16T21:56:15.126Z,11.13
2023-04-16T21:59:38.593Z,13.52
2023-04-16T22:03:00.902Z,9.00
2023-04-16T22:06:23.246Z,9.38
2023-04-16T22:09:45.448Z,10.43
2023-04-16T22:13:12.783Z,9.30
2023-04-16T22:16:36.693Z,11.23
2023-04-16T22:20:00.800Z,9.95
2023-04-16T22:23:22.930Z,13.32
2023-04-16T22:26:45.190Z,10.63
2023-04-16T22:30:08.517Z,11.05
2023-04-16T22:33:31.936Z,8.55
2023-04-16T22:36:54.163Z,10.65
2023-04-16T22:40:16.813Z,9.13
2023-04-16T22:43:39.017Z,8.55
2023-04-16T22:47:00.905Z,10.60
2023-04-16T22:50:24.219Z,10.13
2023-04-16T22:53:46.554Z,12.07
2023-04-16T22:57:08.828Z,9.57
2023-04-16T23:00:30.854Z,11.25
2023-04-16T23:03:53.880Z,10.23
2023-04-16T23:07:17.517Z,10.60
2023-04-16T23:10:39.272Z,8.57
2023-04-16T23:14:01.253Z,9.02
2023-04-16T23:17:23.227Z,13.32
2023-04-16T23:20:44.831Z,19.20
2023-04-16T23:24:08.635Z,13.77
2023-04-16T23:27:30.587Z,10.02
2023-04-16T23:30:53.885Z,11.07
2023-04-16T23:34:15.714Z,13.50
2023-04-16T23:37:37.804Z,11.35
2023-04-16T23:41:01.036Z,8.75
2023-04-16T23:44:23.219Z,12.43
2023-04-16T23:47:44.930Z,12.32
2023-04-16T23:51:07.136Z,15.23
2023-04-16T23:54:29.651Z,12.88
2023-04-16T23:57:53.114Z,11.90
